createdAt,value
2018-03-30T00:00:08.414Z,97011.30
2018-03-30T00:00:40.040Z,97012.63
2018-03-30T00:01:11.670Z,97014.34
2018-03-30T00:01:43.294Z,97011.70
2018-03-30T00:02:14.923Z,97016.34
2018-03-30T00:02:46.554Z,97017.95
2018-03-30T00:03:18.190Z,97014.91
2018-03-30T00:03:49.814Z,97011.07
2018-03-30T00:04:21.485Z,97007.25
2018-03-30T00:04:53.114Z,97013.45
2018-03-30T00:05:24.742Z,97009.59
2018-03-30T00:05:56.370Z,97011.61
2018-03-30T00:06:27.998Z,97014.45
2018-03-30T00:06:59.662Z,97009.70
2018-03-30T00:07:31.286Z,97010.48
2018-03-30T00:08:02.910Z,97012.08
2018-03-30T00:08:34.538Z,97016.67
2018-03-30T00:09:06.176Z,97014.09
2018-03-30T00:09:37.802Z,97016.92
2018-03-30T00:10:09.430Z,97017.78
2018-03-30T00:10:46.762Z,97018.53
2018-03-30T00:11:34.130Z,97019.77
2018-03-30T00:12:05.754Z,97017.63
2018-03-30T00:12:37.383Z,97021.39
2018-03-30T00:13:09.006Z,97021.41
2018-03-30T00:13:40.630Z,97023.48
2018-03-30T00:14:12.258Z,97023.44
2018-03-30T00:14:43.881Z,97021.73
2018-03-30T00:15:15.506Z,97018.75
2018-03-30T00:15:47.129Z,97023.91
2018-03-30T00:16:18.802Z,97016.17
2018-03-30T00:16:50.430Z,97025.45
2018-03-30T00:17:22.059Z,97023.33
2018-03-30T00:17:53.685Z,97021.59
2018-03-30T00:18:25.310Z,97021.52
2018-03-30T00:18:56.938Z,97023.20
2018-03-30T00:19:28.562Z,97023.64
2018-03-30T00:20:00.198Z,97028.30
2018-03-30T00:20:31.828Z,97024.91
2018-03-30T00:21:03.462Z,97029.58
2018-03-30T00:21:35.129Z,97027.78
2018-03-30T00:22:06.790Z,97028.63
2018-03-30T00:22:38.422Z,97029.05
2018-03-30T00:23:10.050Z,97030.67
2018-03-30T00:23:41.673Z,97022.16
2018-03-30T00:24:13.299Z,97026.09
2018-03-30T00:24:44.930Z,97026.02
2018-03-30T00:25:16.555Z,97024.78
2018-03-30T00:25:48.182Z,97021.70
2018-03-30T00:26:19.815Z,97025.48
2018-03-30T00:26:51.487Z,97024.58
2018-03-30T00:27:23.158Z,97024.62
2018-03-30T00:27:54.782Z,97025.53
2018-03-30T00:28:26.643Z,97026.43
2018-03-30T00:28:58.279Z,97021.77
2018-03-30T00:29:29.905Z,97021.50
2018-03-30T00:30:01.537Z,97025.64
2018-03-30T00:30:33.162Z,97022.25
2018-03-30T00:31:04.782Z,97026.87
2018-03-30T00:31:36.414Z,97020.95
2018-03-30T00:32:08.038Z,97027.78
2018-03-30T00:32:39.706Z,97021.37
2018-03-30T00:33:11.335Z,97030.33
2018-03-30T00:33:42.958Z,97024.03
2018-03-30T00:34:14.582Z,97029.92
2018-03-30T00:34:46.209Z,97021.02
2018-03-30T00:35:17.833Z,97023.62
2018-03-30T00:35:49.462Z,97020.98
2018-03-30T00:36:21.126Z,97026.20
2018-03-30T00:36:52.750Z,97023.30
2018-03-30T00:37:24.374Z,97021.70
2018-03-30T00:37:56.023Z,97023.33
2018-03-30T00:38:27.658Z,97023.39
2018-03-30T00:38:59.287Z,97024.29
2018-03-30T00:39:30.909Z,97018.86
2018-03-30T00:40:02.535Z,97021.04
2018-03-30T00:40:34.158Z,97022.33
2018-03-30T00:41:05.791Z,97021.06
2018-03-30T00:41:37.414Z,97023.68
2018-03-30T00:42:09.046Z,97019.44
2018-03-30T00:42:40.675Z,97028.30
2018-03-30T00:43:12.343Z,97022.44
2018-03-30T00:43:44.010Z,97029.31
2018-03-30T00:44:15.679Z,97022.11
2018-03-30T00:44:47.302Z,97015.42
2018-03-30T00:45:18.921Z,97022.64
2018-03-30T00:45:50.551Z,97021.03
2018-03-30T00:46:22.178Z,97024.44
2018-03-30T00:46:53.802Z,97030.81
2018-03-30T00:47:25.434Z,97025.34
2018-03-30T00:47:57.062Z,97024.61
2018-03-30T00:48:28.694Z,97032.70
2018-03-30T00:49:00.367Z,97028.04
2018-03-30T00:49:31.995Z,97030.70
2018-03-30T00:50:03.626Z,97035.86
2018-03-30T00:50:35.252Z,97034.70
2018-03-30T00:51:06.882Z,97028.82
2018-03-30T00:51:38.508Z,97030.62
2018-03-30T00:52:10.130Z,97024.37
2018-03-30T00:52:41.753Z,97032.84
2018-03-30T00:53:13.382Z,97035.00
2018-03-30T00:53:45.046Z,97030.81
2018-03-30T00:54:16.678Z,97035.05
2018-03-30T00:54:48.350Z,97033.03
2018-03-30T00:55:19.977Z,97035.92
2018-03-30T00:55:51.606Z,97034.65
2018-03-30T00:56:23.237Z,97035.89
2018-03-30T00:56:54.905Z,97033.80
2018-03-30T00:57:26.532Z,97033.03
2018-03-30T00:57:58.153Z,97033.36
2018-03-30T00:58:29.826Z,97035.48
2018-03-30T00:59:01.486Z,97033.45
2018-03-30T00:59:33.123Z,97035.17
2018-03-30T01:00:04.771Z,97037.70
2018-03-30T01:00:36.434Z,97034.34
2018-03-30T01:01:08.063Z,97039.50
2018-03-30T01:01:39.737Z,97041.62
2018-03-30T01:02:11.358Z,97043.73
2018-03-30T01:02:42.982Z,97044.15
2018-03-30T01:03:14.612Z,97042.84
2018-03-30T01:03:46.251Z,97042.03
2018-03-30T01:04:17.882Z,97041.69
2018-03-30T01:04:49.510Z,97040.08
2018-03-30T01:05:21.173Z,97049.84
2018-03-30T01:05:52.798Z,97046.47
2018-03-30T01:06:24.422Z,97045.67
2018-03-30T01:06:56.050Z,97041.43
2018-03-30T01:07:27.677Z,97047.39
2018-03-30T01:07:59.306Z,97047.80
2018-03-30T01:08:30.939Z,97049.19
2018-03-30T01:09:02.562Z,97044.12
2018-03-30T01:09:34.186Z,97054.36
2018-03-30T01:10:05.851Z,97045.54
2018-03-30T01:10:37.474Z,97050.58
2018-03-30T01:11:10.018Z,97049.73
2018-03-30T01:11:41.647Z,97052.34
2018-03-30T01:12:13.269Z,97051.52
2018-03-30T01:12:44.894Z,97055.73
2018-03-30T01:13:16.523Z,97051.95
2018-03-30T01:13:48.163Z,97050.25
2018-03-30T01:14:19.830Z,97054.13
2018-03-30T01:14:51.450Z,97046.58
2018-03-30T01:15:23.125Z,97057.53
2018-03-30T01:15:54.750Z,97054.56
2018-03-30T01:16:26.378Z,97052.89
2018-03-30T01:16:58.012Z,97055.02
2018-03-30T01:17:29.638Z,97050.73
2018-03-30T01:18:01.267Z,97057.97
2018-03-30T01:18:32.890Z,97052.03
2018-03-30T01:19:04.523Z,97057.56
2018-03-30T01:19:36.155Z,97058.42
2018-03-30T01:20:07.778Z,97058.84
2018-03-30T01:20:39.442Z,97059.27
2018-03-30T01:21:11.113Z,97064.36
2018-03-30T01:21:42.778Z,97062.20
2018-03-30T01:22:14.402Z,97060.45
2018-03-30T01:22:46.074Z,97061.67
2018-03-30T01:23:17.699Z,97060.75
2018-03-30T01:23:49.321Z,97057.79
2018-03-30T01:24:20.946Z,97057.72
2018-03-30T01:24:52.570Z,97056.86
2018-03-30T01:25:24.198Z,97061.88
2018-03-30T01:25:55.828Z,97062.69
2018-03-30T01:26:27.506Z,97055.39
2018-03-30T01:26:59.138Z,97056.56
2018-03-30T01:27:30.766Z,97055.14
2018-03-30T01:28:02.390Z,97058.02
2018-03-30T01:28:34.015Z,97054.62
2018-03-30T01:29:05.648Z,97058.80
2018-03-30T01:29:37.270Z,97054.84
2018-03-30T01:30:08.898Z,97060.63
2018-03-30T01:30:40.522Z,97054.59
2018-03-30T01:31:12.185Z,97060.85
2018-03-30T01:31:43.815Z,97061.69
2018-03-30T01:32:15.438Z,97056.25
2018-03-30T01:32:47.102Z,97063.34
2018-03-30T01:33:18.731Z,97062.44
2018-03-30T01:33:50.403Z,97064.56
2018-03-30T01:34:22.010Z,97065.55
2018-03-30T01:34:53.634Z,97065.17
2018-03-30T01:35:25.270Z,97056.91
2018-03-30T01:35:56.905Z,97061.25
2018-03-30T01:36:28.541Z,97066.03
2018-03-30T01:37:00.162Z,97065.22
2018-03-30T01:37:31.825Z,97065.09
2018-03-30T01:38:03.498Z,97063.20
2018-03-30T01:38:35.124Z,97062.38
2018-03-30T01:39:06.750Z,97067.98
2018-03-30T01:39:38.374Z,97066.90
2018-03-30T01:40:10.002Z,97057.91
2018-03-30T01:40:41.630Z,97069.34
2018-03-30T01:41:13.250Z,97065.09
2018-03-30T01:41:44.882Z,97072.06
2018-03-30T01:42:16.509Z,97066.19
2018-03-30T01:42:48.173Z,97065.06
2018-03-30T01:43:19.802Z,97068.09
2018-03-30T01:43:51.474Z,97066.91
2018-03-30T01:44:23.106Z,97067.81
2018-03-30T01:44:54.730Z,97064.42
2018-03-30T01:45:26.354Z,97068.25
2018-03-30T01:45:57.982Z,97067.39
2018-03-30T01:46:29.605Z,97058.98
2018-03-30T01:47:01.226Z,97064.92
2018-03-30T01:47:32.856Z,97065.84
2018-03-30T01:48:04.522Z,97061.64
2018-03-30T01:48:36.150Z,97067.25
2018-03-30T01:49:07.774Z,97067.30
2018-03-30T01:49:39.398Z,97067.70
2018-03-30T01:50:11.029Z,97071.41
2018-03-30T01:50:42.698Z,97062.77
2018-03-30T01:51:14.328Z,97055.62
2018-03-30T01:51:45.959Z,97070.81
2018-03-30T01:52:17.647Z,97064.79
2018-03-30T01:52:49.274Z,97064.86
2018-03-30T01:53:20.903Z,97063.60
2018-03-30T01:53:52.534Z,97064.03
2018-03-30T01:54:24.158Z,97061.95
2018-03-30T01:54:55.790Z,97056.47
2018-03-30T01:55:27.430Z,97061.48
2018-03-30T01:55:59.102Z,97053.03
2018-03-30T01:56:30.729Z,97056.85
2018-03-30T01:57:02.358Z,97057.31
2018-03-30T01:57:33.990Z,97058.60
2018-03-30T01:58:05.616Z,97060.73
2018-03-30T01:58:37.251Z,97056.05
2018-03-30T01:59:08.878Z,97054.84
2018-03-30T01:59:40.501Z,97052.27
2018-03-30T02:00:12.126Z,97056.63
2018-03-30T02:00:43.790Z,97060.03
2018-03-30T02:01:15.418Z,97054.91
2018-03-30T02:01:47.083Z,97058.32
2018-03-30T02:02:18.710Z,97061.24
2018-03-30T02:02:50.339Z,97051.09
2018-03-30T02:03:21.971Z,97061.24
2018-03-30T02:03:53.605Z,97062.56
2018-03-30T02:04:25.231Z,97058.77
2018-03-30T02:04:56.854Z,97058.09
2018-03-30T02:05:28.526Z,97051.72
2018-03-30T02:06:00.158Z,97052.17
2018-03-30T02:06:31.782Z,97054.28
2018-03-30T02:07:03.406Z,97049.72
2018-03-30T02:07:35.031Z,97054.83
2018-03-30T02:08:06.715Z,97057.02
2018-03-30T02:08:38.342Z,97060.09
2018-03-30T02:09:09.966Z,97062.14
2018-03-30T02:09:41.598Z,97060.09
2018-03-30T02:10:13.223Z,97060.72
2018-03-30T02:10:44.854Z,97062.50
2018-03-30T02:11:16.478Z,97059.22
2018-03-30T02:11:48.106Z,97057.19
2018-03-30T02:12:19.734Z,97056.92
2018-03-30T02:12:51.406Z,97056.59
2018-03-30T02:13:23.030Z,97059.05
2018-03-30T02:13:54.664Z,97068.81
2018-03-30T02:14:26.291Z,97065.91
2018-03-30T02:14:57.927Z,97066.01
2018-03-30T02:15:29.591Z,97057.52
2018-03-30T02:16:01.237Z,97063.45
2018-03-30T02:16:32.873Z,97063.11
2018-03-30T02:17:04.494Z,97065.23
2018-03-30T02:17:36.126Z,97061.84
2018-03-30T02:18:07.802Z,97070.38
2018-03-30T02:18:39.433Z,97062.40
2018-03-30T02:19:11.063Z,97064.73
2018-03-30T02:19:42.691Z,97074.02
2018-03-30T02:20:14.326Z,97067.70
2018-03-30T02:20:45.958Z,97067.70
2018-03-30T02:21:17.583Z,97068.20
2018-03-30T02:21:49.209Z,97063.58
2018-03-30T02:22:20.890Z,97062.78
2018-03-30T02:22:52.518Z,97070.47
2018-03-30T02:23:24.151Z,97063.22
2018-03-30T02:23:55.782Z,97064.08
2018-03-30T02:24:27.417Z,97061.17
2018-03-30T02:24:59.045Z,97063.76
2018-03-30T02:25:30.665Z,97066.30
2018-03-30T02:26:02.286Z,97061.20
2018-03-30T02:26:33.909Z,97058.30
2018-03-30T02:27:05.529Z,97061.71
2018-03-30T02:27:37.202Z,97060.88
2018-03-30T02:28:08.830Z,97058.41
2018-03-30T02:28:40.458Z,97063.05
2018-03-30T02:29:12.087Z,97061.38
2018-03-30T02:29:43.714Z,97060.95
2018-03-30T02:30:15.346Z,97060.95
2018-03-30T02:30:46.974Z,97028.52
2018-03-30T02:31:18.608Z,97057.66
2018-03-30T02:31:50.230Z,97060.27
2018-03-30T02:32:21.862Z,97060.27
2018-03-30T02:32:53.534Z,97050.66
2018-03-30T02:33:25.157Z,97056.12
2018-03-30T02:33:56.790Z,97054.00
2018-03-30T02:34:28.414Z,97052.73
2018-03-30T02:35:00.043Z,97052.37
2018-03-30T02:35:31.670Z,97049.77
2018-03-30T02:36:03.308Z,97052.45
2018-03-30T02:36:34.939Z,97049.15
2018-03-30T02:37:06.621Z,97056.30
2018-03-30T02:37:38.303Z,97056.74
2018-03-30T02:38:09.943Z,97054.18
2018-03-30T02:38:41.566Z,97054.59
2018-03-30T02:39:13.190Z,97052.06
2018-03-30T02:39:44.822Z,97056.31
2018-03-30T02:40:16.451Z,97049.08
2018-03-30T02:40:48.082Z,97054.59
2018-03-30T02:41:19.705Z,97059.20
2018-03-30T02:41:51.339Z,97060.88
2018-03-30T02:42:22.963Z,97063.77
2018-03-30T02:42:54.634Z,97052.80
2018-03-30T02:43:26.263Z,97057.38
2018-03-30T02:43:57.886Z,97057.80
2018-03-30T02:44:29.510Z,97057.73
2018-03-30T02:45:01.143Z,97055.16
2018-03-30T02:45:32.826Z,97055.50
2018-03-30T02:46:04.454Z,97053.92
2018-03-30T02:46:36.083Z,97052.98
2018-03-30T02:47:07.715Z,97049.90
2018-03-30T02:47:39.346Z,97051.16
2018-03-30T02:48:10.975Z,97054.05
2018-03-30T02:48:42.598Z,97045.49
2018-03-30T02:49:14.223Z,97050.49
2018-03-30T02:49:45.854Z,97054.23
2018-03-30T02:50:17.485Z,97046.20
2018-03-30T02:50:49.113Z,97046.47
2018-03-30T02:51:20.738Z,97049.38
2018-03-30T02:51:52.372Z,97054.44
2018-03-30T02:52:24.011Z,97050.98
2018-03-30T02:52:55.646Z,97059.03
2018-03-30T02:53:27.270Z,97051.40
2018-03-30T02:53:58.939Z,97056.01
2018-03-30T02:54:30.570Z,97056.01
2018-03-30T02:55:02.204Z,97050.49
2018-03-30T02:55:33.841Z,97050.47
2018-03-30T02:56:05.469Z,97055.04
2018-03-30T02:56:37.167Z,97053.36
2018-03-30T02:57:08.799Z,97059.55
2018-03-30T02:57:40.474Z,97056.97
2018-03-30T02:58:12.114Z,97056.56
2018-03-30T02:58:43.806Z,97056.98
2018-03-30T02:59:15.439Z,97055.69
2018-03-30T02:59:47.061Z,97059.84
2018-03-30T03:00:18.701Z,97060.28
2018-03-30T03:00:50.345Z,97062.31
2018-03-30T03:01:22.028Z,97058.42
2018-03-30T03:01:53.655Z,97061.36
2018-03-30T03:02:25.363Z,97058.30
2018-03-30T03:02:56.994Z,97053.22
2018-03-30T03:03:28.627Z,97055.73
2018-03-30T03:04:00.258Z,97055.65
2018-03-30T03:04:31.890Z,97056.02
2018-03-30T03:05:03.519Z,97056.94
2018-03-30T03:05:35.194Z,97058.65
2018-03-30T03:06:06.818Z,97057.77
2018-03-30T03:06:38.450Z,97058.05
2018-03-30T03:07:10.074Z,97063.61
2018-03-30T03:07:41.703Z,97054.72
2018-03-30T03:08:13.335Z,97047.17
2018-03-30T03:08:44.962Z,97055.96
2018-03-30T03:09:16.591Z,97056.66
2018-03-30T03:09:48.214Z,97054.16
2018-03-30T03:10:19.898Z,97059.27
2018-03-30T03:10:51.573Z,97054.97
2018-03-30T03:11:23.200Z,97055.83
2018-03-30T03:11:54.900Z,97051.20
2018-03-30T03:12:26.521Z,97052.13
2018-03-30T03:12:58.149Z,97052.91
2018-03-30T03:13:29.778Z,97050.81
2018-03-30T03:14:01.402Z,97055.07
2018-03-30T03:14:33.036Z,97050.77
2018-03-30T03:15:04.658Z,97051.14
2018-03-30T03:15:36.281Z,97052.84
2018-03-30T03:16:07.906Z,97049.91
2018-03-30T03:16:39.534Z,97052.13
2018-03-30T03:17:11.206Z,97052.57
2018-03-30T03:17:42.830Z,97047.89
2018-03-30T03:18:14.458Z,97048.69
2018-03-30T03:18:46.086Z,97050.77
2018-03-30T03:19:17.713Z,97050.77
2018-03-30T03:19:49.338Z,97050.44
2018-03-30T03:20:20.961Z,97054.27
2018-03-30T03:20:52.586Z,97051.73
2018-03-30T03:21:24.262Z,97054.79
2018-03-30T03:21:55.890Z,97053.95
2018-03-30T03:22:27.518Z,97053.13
2018-03-30T03:22:59.181Z,97050.55
2018-03-30T03:23:30.806Z,97049.35
2018-03-30T03:24:02.439Z,97051.59
2018-03-30T03:24:34.071Z,97053.23
2018-03-30T03:25:05.700Z,97051.57
2018-03-30T03:25:37.330Z,97056.36
2018-03-30T03:26:08.958Z,97057.65
2018-03-30T03:26:40.625Z,97061.02
2018-03-30T03:27:12.257Z,97055.95
2018-03-30T03:27:43.890Z,97058.05
2018-03-30T03:28:15.518Z,97056.86
2018-03-30T03:28:47.158Z,97049.66
2018-03-30T03:29:18.799Z,97058.52
2018-03-30T03:29:50.471Z,97058.14
2018-03-30T03:30:22.096Z,97053.48
2018-03-30T03:30:53.727Z,97057.25
2018-03-30T03:31:25.354Z,97055.64
2018-03-30T03:31:56.982Z,97055.27
2018-03-30T03:32:28.609Z,97051.90
2018-03-30T03:33:00.234Z,97054.88
2018-03-30T03:33:31.857Z,97055.41
2018-03-30T03:34:03.490Z,97054.20
2018-03-30T03:34:35.121Z,97055.02
2018-03-30T03:35:06.743Z,97058.42
2018-03-30T03:35:38.378Z,97056.77
2018-03-30T03:36:10.011Z,97049.64
2018-03-30T03:36:41.642Z,97049.18
2018-03-30T03:37:13.266Z,97049.27
2018-03-30T03:37:44.902Z,97051.06
2018-03-30T03:38:16.526Z,97046.87
2018-03-30T03:38:48.149Z,97052.48
2018-03-30T03:39:19.818Z,97055.58
2018-03-30T03:39:51.450Z,97042.00
2018-03-30T03:40:23.082Z,97052.69
2018-03-30T03:40:54.706Z,97052.75
2018-03-30T03:41:26.378Z,97053.61
2018-03-30T03:41:58.001Z,97048.64
2018-03-30T03:42:29.629Z,97052.87
2018-03-30T03:43:01.254Z,97055.02
2018-03-30T03:43:32.886Z,97046.95
2018-03-30T03:44:04.514Z,97054.06
2018-03-30T03:44:36.138Z,97049.83
2018-03-30T03:45:07.767Z,97051.11
2018-03-30T03:45:39.434Z,97048.20
2018-03-30T03:46:11.061Z,97046.59
2018-03-30T03:46:42.690Z,97047.00
2018-03-30T03:47:14.309Z,97044.91
2018-03-30T03:47:45.934Z,97046.70
2018-03-30T03:48:17.557Z,97045.92
2018-03-30T03:48:49.188Z,97045.95
2018-03-30T03:49:20.814Z,97050.68
2018-03-30T03:49:52.483Z,97050.34
2018-03-30T03:50:24.145Z,97045.23
2018-03-30T03:50:55.767Z,97043.11
2018-03-30T03:51:27.402Z,97043.55
2018-03-30T03:51:59.031Z,97045.24
2018-03-30T03:52:30.658Z,97049.48
2018-03-30T03:53:02.286Z,97042.29
2018-03-30T03:53:33.924Z,97047.38
2018-03-30T03:54:05.551Z,97036.76
2018-03-30T03:54:37.230Z,97046.13
2018-03-30T03:55:08.853Z,97042.77
2018-03-30T03:55:40.478Z,97043.23
2018-03-30T03:56:12.110Z,97042.80
2018-03-30T03:56:43.737Z,97045.75
2018-03-30T03:57:15.362Z,97042.29
2018-03-30T03:57:46.986Z,97042.59
2018-03-30T03:58:18.615Z,97038.86
2018-03-30T03:58:50.239Z,97040.16
2018-03-30T03:59:21.862Z,97037.21
2018-03-30T03:59:53.490Z,97035.16
2018-03-30T04:00:25.114Z,97036.42
2018-03-30T04:00:56.742Z,97039.80
2018-03-30T04:01:28.370Z,97034.80
2018-03-30T04:02:00.002Z,97036.50
2018-03-30T04:02:31.630Z,97033.89
2018-03-30T04:03:03.258Z,97030.97
2018-03-30T04:03:34.882Z,97037.36
2018-03-30T04:04:06.507Z,97041.55
2018-03-30T04:04:38.135Z,97039.55
2018-03-30T04:05:09.770Z,97041.67
2018-03-30T04:05:41.403Z,97036.58
2018-03-30T04:06:13.025Z,97037.39
2018-03-30T04:06:44.649Z,97038.74
2018-03-30T04:07:16.274Z,97040.06
2018-03-30T04:07:47.898Z,97040.06
2018-03-30T04:08:19.570Z,97037.98
2018-03-30T04:08:51.194Z,97040.88
2018-03-30T04:09:22.826Z,97037.09
2018-03-30T04:09:54.460Z,97040.92
2018-03-30T04:10:26.084Z,97039.66
2018-03-30T04:10:57.706Z,97037.13
2018-03-30T04:11:29.339Z,97038.81
2018-03-30T04:12:00.965Z,97036.26
2018-03-30T04:12:32.594Z,97041.39
2018-03-30T04:13:04.257Z,97036.26
2018-03-30T04:13:35.929Z,97041.47
2018-03-30T04:14:07.565Z,97035.50
2018-03-30T04:14:39.197Z,97037.64
2018-03-30T04:15:10.824Z,97033.41
2018-03-30T04:15:42.459Z,97042.33
2018-03-30T04:16:14.082Z,97036.79
2018-03-30T04:16:45.715Z,97038.14
2018-03-30T04:17:17.338Z,97036.44
2018-03-30T04:17:48.966Z,97044.09
2018-03-30T04:18:20.624Z,97041.14
2018-03-30T04:18:52.301Z,97033.48
2018-03-30T04:19:23.930Z,97042.39
2018-03-30T04:19:55.553Z,97039.92
2018-03-30T04:20:27.180Z,97039.02
2018-03-30T04:20:58.810Z,97044.53
2018-03-30T04:21:30.434Z,97040.70
2018-03-30T04:22:02.063Z,97039.36
2018-03-30T04:22:33.701Z,97039.33
2018-03-30T04:23:05.329Z,97046.11
2018-03-30T04:23:36.954Z,97040.06
2018-03-30T04:24:08.650Z,97044.98
2018-03-30T04:24:40.302Z,97041.50
2018-03-30T04:25:11.932Z,97038.91
2018-03-30T04:25:43.557Z,97042.63
2018-03-30T04:26:15.178Z,97048.06
2018-03-30T04:26:46.810Z,97042.08
2018-03-30T04:27:18.440Z,97039.03
2018-03-30T04:27:50.070Z,97039.37
2018-03-30T04:28:21.701Z,97041.41
2018-03-30T04:28:53.330Z,97042.61
2018-03-30T04:29:24.954Z,97048.11
2018-03-30T04:29:56.584Z,97041.72
2018-03-30T04:30:28.206Z,97040.78
2018-03-30T04:30:59.830Z,97041.53
2018-03-30T04:31:31.454Z,97045.67
2018-03-30T04:32:03.083Z,97044.79
2018-03-30T04:32:34.709Z,97046.87
2018-03-30T04:33:06.338Z,97046.40
2018-03-30T04:33:37.967Z,97047.20
2018-03-30T04:34:09.638Z,97028.82
2018-03-30T04:34:41.265Z,97041.98
2018-03-30T04:35:12.893Z,97048.33
2018-03-30T04:35:44.532Z,97047.89
2018-03-30T04:36:16.202Z,97044.50
2018-03-30T04:36:47.830Z,97047.39
2018-03-30T04:37:19.470Z,97047.73
2018-03-30T04:37:51.095Z,97046.38
2018-03-30T04:38:22.777Z,97047.62
2018-03-30T04:38:54.405Z,97045.41
2018-03-30T04:39:26.026Z,97050.44
2018-03-30T04:39:57.649Z,97050.02
2018-03-30T04:40:29.280Z,97053.73
2018-03-30T04:41:00.934Z,97049.50
2018-03-30T04:41:32.563Z,97051.59
2018-03-30T04:42:04.191Z,97056.19
2018-03-30T04:42:35.818Z,97046.30
2018-03-30T04:43:07.446Z,97046.23
2018-03-30T04:43:39.109Z,97051.31
2018-03-30T04:44:10.738Z,97045.38
2018-03-30T04:44:42.367Z,97055.02
2018-03-30T04:45:13.990Z,97051.61
2018-03-30T04:45:45.614Z,97050.70
2018-03-30T04:46:17.250Z,97050.72
2018-03-30T04:46:48.874Z,97050.72
2018-03-30T04:47:20.503Z,97046.89
2018-03-30T04:47:52.174Z,97047.73
2018-03-30T04:48:23.797Z,97050.67
2018-03-30T04:48:55.425Z,97053.22
2018-03-30T04:49:27.081Z,97048.05
2018-03-30T04:49:58.729Z,97050.14
2018-03-30T04:50:30.366Z,97047.61
2018-03-30T04:51:01.991Z,97047.61
2018-03-30T04:51:33.626Z,97045.04
2018-03-30T04:52:05.254Z,97042.17
2018-03-30T04:52:36.886Z,97042.59
2018-03-30T04:53:08.509Z,97043.05
2018-03-30T04:53:40.130Z,97038.34
2018-03-30T04:54:11.759Z,97044.22
2018-03-30T04:54:43.414Z,97035.22
2018-03-30T04:55:15.110Z,97043.30
2018-03-30T04:55:46.709Z,97038.28
2018-03-30T04:56:18.394Z,97042.50
2018-03-30T04:56:50.018Z,97037.51
2018-03-30T04:57:21.646Z,97040.88
2018-03-30T04:57:53.271Z,97042.94
2018-03-30T04:58:24.894Z,97043.06
2018-03-30T04:58:56.534Z,97038.44
2018-03-30T04:59:28.158Z,97039.29
2018-03-30T04:59:59.830Z,97039.33
2018-03-30T05:00:31.461Z,97035.59
2018-03-30T05:01:03.094Z,97029.19
2018-03-30T05:01:34.794Z,97032.67
2018-03-30T05:02:06.418Z,97027.56
2018-03-30T05:02:38.042Z,97035.57
2018-03-30T05:03:09.719Z,97025.41
2018-03-30T05:03:41.351Z,97023.27
2018-03-30T05:04:12.975Z,97027.20
2018-03-30T05:04:44.608Z,97023.31
2018-03-30T05:05:16.237Z,97026.00
2018-03-30T05:05:47.862Z,97029.82
2018-03-30T05:06:19.486Z,97026.84
2018-03-30T05:06:51.109Z,97025.73
2018-03-30T05:07:22.738Z,97029.99
2018-03-30T05:07:54.384Z,97025.85
2018-03-30T05:08:26.067Z,97030.88
2018-03-30T05:08:57.700Z,97030.78
2018-03-30T05:09:29.330Z,97028.23
2018-03-30T05:10:00.954Z,97027.38
2018-03-30T05:10:32.582Z,97014.14
2018-03-30T05:11:04.207Z,97029.61
2018-03-30T05:11:35.879Z,97029.28
2018-03-30T05:12:07.502Z,97024.17
2018-03-30T05:12:39.147Z,97027.13
2018-03-30T05:13:10.789Z,97021.29
2018-03-30T05:13:42.414Z,97025.12
2018-03-30T05:14:14.044Z,97028.58
2018-03-30T05:14:45.668Z,97025.20
2018-03-30T05:15:17.334Z,97016.36
2018-03-30T05:15:48.953Z,97020.61
2018-03-30T05:16:20.578Z,97023.61
2018-03-30T05:16:52.208Z,97025.30
2018-03-30T05:17:23.838Z,97026.14
2018-03-30T05:17:55.458Z,97018.17
2018-03-30T05:18:27.081Z,97025.05
2018-03-30T05:18:58.701Z,97023.81
2018-03-30T05:19:30.338Z,97024.70
2018-03-30T05:20:01.966Z,97023.53
2018-03-30T05:20:33.649Z,97024.11
2018-03-30T05:21:05.294Z,97022.53
2018-03-30T05:21:36.917Z,97021.76
2018-03-30T05:22:08.546Z,97020.05
2018-03-30T05:22:40.166Z,97023.47
2018-03-30T05:23:11.790Z,97024.00
2018-03-30T05:23:43.414Z,97020.77
2018-03-30T05:24:15.082Z,97023.38
2018-03-30T05:24:46.752Z,97021.70
2018-03-30T05:25:18.386Z,97025.11
2018-03-30T05:25:50.010Z,97020.87
2018-03-30T05:26:21.680Z,97020.13
2018-03-30T05:26:53.309Z,97021.37
2018-03-30T05:27:24.929Z,97026.11
2018-03-30T05:27:56.558Z,97019.77
2018-03-30T05:28:28.190Z,97017.70
2018-03-30T05:28:59.814Z,97020.71
2018-03-30T05:29:31.445Z,97022.41
2018-03-30T05:30:03.121Z,97019.45
2018-03-30T05:30:34.750Z,97024.12
2018-03-30T05:31:06.377Z,97023.27
2018-03-30T05:31:38.050Z,97022.86
2018-03-30T05:32:09.691Z,97033.91
2018-03-30T05:32:41.314Z,97028.77
2018-03-30T05:33:12.946Z,97032.26
2018-03-30T05:33:44.570Z,97029.83
2018-03-30T05:34:16.200Z,97033.97
2018-03-30T05:34:47.834Z,97033.56
2018-03-30T05:35:19.458Z,97031.53
2018-03-30T05:35:51.150Z,97033.70
2018-03-30T05:36:22.778Z,97034.48
2018-03-30T05:36:54.409Z,97032.81
2018-03-30T05:37:26.070Z,97032.42
2018-03-30T05:37:57.722Z,97029.45
2018-03-30T05:38:29.349Z,97036.70
2018-03-30T05:39:00.970Z,97036.24
2018-03-30T05:39:32.602Z,97035.76
2018-03-30T05:40:04.275Z,97028.98
2018-03-30T05:40:35.906Z,97034.13
2018-03-30T05:41:07.534Z,97037.97
2018-03-30T05:41:39.162Z,97033.31
2018-03-30T05:42:10.790Z,97038.41
2018-03-30T05:42:42.413Z,97042.21
2018-03-30T05:43:14.042Z,97040.95
2018-03-30T05:43:45.671Z,97040.94
2018-03-30T05:44:17.349Z,97047.39
2018-03-30T05:44:48.987Z,97043.52
2018-03-30T05:45:20.611Z,97041.39
2018-03-30T05:45:52.238Z,97043.50
2018-03-30T05:46:23.862Z,97049.86
2018-03-30T05:46:55.495Z,97046.03
2018-03-30T05:47:27.118Z,97048.52
2018-03-30T05:47:58.745Z,97047.23
2018-03-30T05:48:30.390Z,97048.39
2018-03-30T05:49:02.039Z,97049.59
2018-03-30T05:49:33.706Z,97050.44
2018-03-30T05:50:05.330Z,97048.23
2018-03-30T05:50:36.954Z,97050.28
2018-03-30T05:51:08.578Z,97048.82
2018-03-30T05:51:40.242Z,97049.56
2018-03-30T05:52:11.865Z,97053.20
2018-03-30T05:52:43.495Z,97050.89
2018-03-30T05:53:15.126Z,97053.17
2018-03-30T05:53:46.763Z,97046.72
2018-03-30T05:54:18.386Z,97054.11
2018-03-30T05:54:50.010Z,97051.75
2018-03-30T05:55:21.635Z,97054.80
2018-03-30T05:55:53.306Z,97049.80
2018-03-30T05:56:24.930Z,97054.58
2018-03-30T05:56:56.558Z,97050.00
2018-03-30T05:57:28.182Z,97048.61
2018-03-30T05:57:59.815Z,97047.42
2018-03-30T05:58:31.437Z,97044.41
2018-03-30T05:59:03.075Z,97044.00
2018-03-30T05:59:34.698Z,97048.23
2018-03-30T06:00:06.326Z,97043.83
2018-03-30T06:00:37.990Z,97050.47
2018-03-30T06:01:09.658Z,97051.21
2018-03-30T06:01:41.536Z,97043.91
2018-03-30T06:02:13.172Z,97052.22
2018-03-30T06:02:44.802Z,97046.23
2018-03-30T06:03:16.882Z,97044.02
2018-03-30T06:03:48.678Z,97052.01
2018-03-30T06:04:20.307Z,97047.66
2018-03-30T06:04:51.931Z,97044.61
2018-03-30T06:05:23.614Z,97052.16
2018-03-30T06:05:55.247Z,97043.16
2018-03-30T06:06:26.879Z,97047.73
2018-03-30T06:06:58.502Z,97051.98
2018-03-30T06:07:30.125Z,97052.81
2018-03-30T06:08:01.763Z,97049.83
2018-03-30T06:08:33.398Z,97051.34
2018-03-30T06:09:05.026Z,97057.95
2018-03-30T06:09:36.658Z,97048.48
2018-03-30T06:10:08.326Z,97053.86
2018-03-30T06:10:39.958Z,97048.56
2018-03-30T06:11:11.591Z,97055.41
2018-03-30T06:11:43.234Z,97054.19